Stations météo

réclame
Mon MeteoGroup
Lluc, Espagne (8304): Température de l'air & dewpoint: 16.10.2017 06:00:00 - 22.10.2017 06:00:00 (CEST)Lluc, Espagne (8304): Vitesse du vent & gusts: 16.10.2017 06:00:00 - 22.10.2017 06:00:00 (CEST)Lluc, Espagne (8304): Direction du vent: 16.10.2017 06:00:00 - 22.10.2017 06:00:00 (CEST)Lluc, Espagne (8304): Quantités de précipitations: 16.10.2017 06:00:00 - 22.10.2017 06:00:00 (CEST)
Date & Time tt [°C] td [°C] ff [km/h] ff [knt] fx [km/h] fx [knt] dd rr [mm]
22.10.2017 06:00:00 14,4 12,6 5 3 19 10 ESE 0,0
22.10.2017 05:00:00 14,8 13,1 4 2 17 9 SSE 0,0
22.10.2017 04:00:00 11,0 9,3 0 0 0 0 N 0,0
22.10.2017 03:00:00 10,9 9,2 0 0 0 0 N 0,0
22.10.2017 02:00:00 11,2 9,4 0 0 0 0 N -
22.10.2017 01:00:00 11,4 9,7 0 0 0 0 N 0,0
22.10.2017 00:00:00 11,6 9,7 0 0 0 0 N 0,0
21.10.2017 23:00:00 12,0 10,0 0 0 0 0 N 0,0
21.10.2017 22:00:00 12,7 10,6 0 0 0 0 N 0,0
21.10.2017 21:00:00 13,8 11,7 0 0 0 0 N 0,0
21.10.2017 20:00:00 15,0 12,5 0 0 0 0 N -
21.10.2017 19:00:00 16,6 13,9 0 0 0 0 N 0,0
21.10.2017 18:00:00 18,0 14,3 0 0 8 4 N 0,0
21.10.2017 17:00:00 19,1 14,3 3 2 13 7 WSW 0,0
21.10.2017 16:00:00 20,0 13,5 5 3 15 8 ESE 0,0
21.10.2017 15:00:00 20,4 14,3 1 1 12 6 SSW 0,0
21.10.2017 14:00:00 20,9 13,4 3 2 10 5 SSW -
21.10.2017 13:00:00 22,0 13,4 2 1 8 4 SSW 0,0
21.10.2017 12:00:00 20,7 13,7 3 2 8 5 W 0,0
21.10.2017 11:00:00 18,2 13,9 2 1 8 4 WNW 0,0
21.10.2017 10:00:00 15,2 13,4 0 0 0 0 N 0,0
21.10.2017 09:00:00 9,9 8,1 0 0 0 0 N 0,0
21.10.2017 08:00:00 9,6 7,8 0 0 0 0 N -
21.10.2017 07:00:00 9,9 8,1 0 0 0 0 N 0,0
21.10.2017 06:00:00 10,3 8,8 0 0 0 0 N 0,0
21.10.2017 05:00:00 10,8 9,0 0 0 0 0 N 0,0
21.10.2017 04:00:00 10,8 9,0 0 0 0 0 N 0,0
21.10.2017 03:00:00 10,4 8,7 0 0 0 0 N 0,0
21.10.2017 02:00:00 10,5 8,8 0 0 0 0 N -
21.10.2017 01:00:00 10,6 8,9 0 0 0 0 N 0,0
21.10.2017 00:00:00 11,1 9,2 0 0 0 0 N 0,0
20.10.2017 23:00:00 11,8 9,9 0 0 0 0 N 0,0
20.10.2017 22:00:00 11,9 9,9 0 0 0 0 N 0,0
20.10.2017 21:00:00 11,9 9,7 0 0 0 0 N 0,0
20.10.2017 20:00:00 12,6 9,9 0 0 0 0 N -
20.10.2017 19:00:00 13,7 10,5 0 0 0 0 N 0,0
20.10.2017 18:00:00 15,4 11,2 0 0 10 5 N 0,0
20.10.2017 17:00:00 17,0 9,2 2 1 11 6 SSW 0,0
20.10.2017 16:00:00 17,5 9,9 3 2 15 8 S 0,0
20.10.2017 15:00:00 17,6 9,9 6 3 18 10 SSW 0,0
20.10.2017 14:00:00 18,0 10,6 2 1 14 8 SSW -
20.10.2017 13:00:00 18,0 11,1 3 2 18 10 S 0,0
20.10.2017 12:00:00 18,6 11,4 3 2 8 4 SW 0,0
20.10.2017 11:00:00 16,9 13,1 0 0 0 0 N 0,0
20.10.2017 10:00:00 13,1 11,4 0 0 0 0 N 0,0
20.10.2017 09:00:00 7,7 6,1 0 0 0 0 N 0,0
20.10.2017 08:00:00 7,4 5,9 0 0 0 0 N -
20.10.2017 07:00:00 7,6 6,1 0 0 0 0 N 0,0
20.10.2017 06:00:00 7,7 6,1 0 0 0 0 N 0,0
20.10.2017 05:00:00 8,2 6,7 0 0 0 0 N 0,0
20.10.2017 04:00:00 8,0 6,4 0 0 0 0 N 0,0
20.10.2017 03:00:00 8,3 6,7 0 0 0 0 N 0,0
20.10.2017 02:00:00 9,3 7,7 0 0 0 0 N -
20.10.2017 01:00:00 9,0 7,4 0 0 0 0 N 0,0
20.10.2017 00:00:00 8,8 7,1 0 0 0 0 N 0,0
19.10.2017 23:00:00 9,1 7,4 0 0 0 0 N 0,0
19.10.2017 22:00:00 9,3 7,6 0 0 0 0 N 0,0
19.10.2017 21:00:00 9,7 7,8 0 0 0 0 N 0,0
19.10.2017 20:00:00 10,3 8,4 0 0 0 0 N -
19.10.2017 19:00:00 11,1 8,8 0 0 18 10 E 0,0
19.10.2017 18:00:00 12,5 10,2 0 0 8 4 S 0,0
19.10.2017 17:00:00 12,9 10,6 1 1 10 5 SSW 0,0
19.10.2017 16:00:00 12,9 10,8 1 1 11 6 SE 0,0
19.10.2017 15:00:00 12,6 10,9 2 1 11 6 ESE 6,4
19.10.2017 14:00:00 13,2 11,4 2 1 8 4 SE -
19.10.2017 13:00:00 13,9 11,9 0 0 15 8 N 7,2
19.10.2017 12:00:00 14,7 12,7 3 2 16 9 SSE 0,4
19.10.2017 11:00:00 13,6 11,8 3 2 16 9 SE 1,4
19.10.2017 10:00:00 13,7 11,9 2 1 17 9 SSE 0,6
19.10.2017 09:00:00 13,2 11,4 4 2 16 8 SE 0,0
19.10.2017 08:00:00 13,0 11,4 6 3 19 10 S -
19.10.2017 07:00:00 13,1 11,3 1 1 6 3 SE 0,2
19.10.2017 06:00:00 13,4 11,8 1 1 8 4 E 2,4
19.10.2017 05:00:00 13,4 11,7 3 1 13 7 ESE 7,5
19.10.2017 04:00:00 14,1 12,1 1 1 23 12 N 0,9
19.10.2017 03:00:00 14,2 11,9 2 1 29 15 E 0,8
19.10.2017 02:00:00 14,9 12,0 6 3 22 12 ENE -
19.10.2017 01:00:00 17,0 13,9 6 4 42 23 E 1,9
19.10.2017 00:00:00 18,0 15,1 4 2 21 11 ESE 0,0
18.10.2017 23:00:00 18,0 13,9 4 2 18 10 SE 0,0
18.10.2017 22:00:00 18,3 9,4 5 3 17 9 SE 0,0
18.10.2017 21:00:00 18,5 11,1 5 3 19 11 SE 0,0
18.10.2017 20:00:00 18,3 13,8 4 2 23 13 SE -
18.10.2017 19:00:00 19,2 12,6 7 4 25 13 S 0,0
18.10.2017 18:00:00 20,4 10,2 9 5 24 13 S 0,0
18.10.2017 17:00:00 21,0 10,5 4 2 24 13 SSE 0,0
18.10.2017 16:00:00 22,4 8,9 6 4 24 13 ESE 0,0
18.10.2017 15:00:00 22,5 9,7 6 3 27 15 S 0,0
18.10.2017 14:00:00 22,7 10,2 8 4 29 16 S -
18.10.2017 13:00:00 21,9 7,0 8 4 29 16 S 0,0
18.10.2017 12:00:00 22,4 4,8 12 7 36 19 S 0,0
18.10.2017 11:00:00 20,1 5,0 6 4 25 13 SSE 0,0
18.10.2017 10:00:00 16,2 7,4 0 0 16 8 W 0,0
18.10.2017 09:00:00 14,6 9,4 1 1 14 8 W 0,0
18.10.2017 08:00:00 14,8 9,2 1 1 13 7 WSW -
18.10.2017 07:00:00 16,0 10,3 6 4 20 11 ESE 0,0
18.10.2017 06:00:00 13,1 11,4 2 1 9 5 E 0,0
18.10.2017 05:00:00 10,9 9,3 0 0 0 0 N 0,0
18.10.2017 04:00:00 11,0 9,3 0 0 0 0 ESE 0,0
18.10.2017 03:00:00 10,4 8,7 0 0 1 0 N 0,0
18.10.2017 02:00:00 11,1 9,2 1 0 5 3 ESE -
18.10.2017 01:00:00 12,2 9,8 0 0 4 2 N 0,0
18.10.2017 00:00:00 13,4 11,1 1 0 5 3 SE 0,0
17.10.2017 23:00:00 15,9 13,8 1 1 16 8 E 0,0
17.10.2017 22:00:00 16,7 14,3 4 2 12 6 SE 0,0
17.10.2017 21:00:00 17,2 14,4 4 2 14 8 SSE 0,0
17.10.2017 20:00:00 17,8 14,1 3 2 12 6 SE -
17.10.2017 19:00:00 18,1 13,8 1 1 15 8 NW 0,0
17.10.2017 18:00:00 18,9 13,9 1 1 10 5 SE 0,0
17.10.2017 17:00:00 19,4 13,6 0 0 14 7 S 0,0
17.10.2017 16:00:00 19,6 12,8 4 2 15 8 SSE 0,0
17.10.2017 15:00:00 19,8 12,7 4 2 15 8 SE 0,0
17.10.2017 14:00:00 21,0 12,6 4 2 17 9 ESE -
17.10.2017 13:00:00 21,1 13,6 4 2 19 10 ESE 0,0
17.10.2017 12:00:00 18,8 13,5 8 4 21 11 SE 0,0
17.10.2017 11:00:00 18,7 14,6 4 2 16 9 SE 0,0
17.10.2017 10:00:00 16,1 14,2 3 2 11 6 E 0,0
17.10.2017 09:00:00 12,2 10,6 0 0 3 2 E 0,0
17.10.2017 08:00:00 10,8 9,2 0 0 4 2 N -
17.10.2017 07:00:00 10,2 8,5 0 0 0 0 N 0,0
17.10.2017 06:00:00 10,9 9,2 0 0 0 0 N 0,0
17.10.2017 05:00:00 11,9 9,9 0 0 0 0 N 0,0
17.10.2017 04:00:00 13,0 11,1 0 0 4 2 N 0,0
17.10.2017 03:00:00 14,3 12,0 0 0 6 4 ESE 0,0
17.10.2017 02:00:00 16,0 13,5 1 1 9 5 ESE -
17.10.2017 01:00:00 16,4 13,7 3 1 12 6 ESE 0,0
17.10.2017 00:00:00 16,5 13,9 6 3 16 9 SE 0,0
16.10.2017 23:00:00 16,7 14,1 5 3 16 9 SE 0,0
16.10.2017 22:00:00 16,8 14,2 5 3 17 9 ESE 0,0
16.10.2017 21:00:00 16,9 13,7 5 3 14 8 SE 0,0
16.10.2017 20:00:00 17,0 13,0 3 2 14 8 SSE -
16.10.2017 19:00:00 17,4 12,1 4 2 14 8 SE 0,0
16.10.2017 18:00:00 18,3 11,6 5 3 13 7 ESE 0,0
16.10.2017 17:00:00 19,4 11,2 2 1 14 8 S 0,0
16.10.2017 16:00:00 20,5 10,6 1 1 11 6 ESE 0,0
16.10.2017 15:00:00 21,2 10,4 3 1 16 9 S 0,0
16.10.2017 14:00:00 21,5 10,6 3 2 17 9 SSW -
16.10.2017 13:00:00 21,6 11,3 6 3 20 11 S 0,0
16.10.2017 12:00:00 20,3 11,4 6 3 17 9 SE 0,0
16.10.2017 11:00:00 17,8 11,6 6 4 19 10 SSW 0,0
16.10.2017 10:00:00 16,8 11,9 6 3 17 9 SSE 0,0
16.10.2017 09:00:00 15,1 11,4 5 3 16 9 SE 0,0
16.10.2017 08:00:00 14,1 10,6 3 2 14 8 SE -
16.10.2017 07:00:00 15,4 11,0 5 3 14 8 SE 0,0
16.10.2017 06:00:00 15,2 12,3 4 2 13 7 ESE 0,0

tt = Température de l'air
td = dewpoint
ff = Vitesse du vent
fx = gusts
dd = Direction du vent
rr = Quantités de précipitations

stations d'obs. à proximité